Time;durP1;ratioP1;P1;durP2;ratioP2;P2;SDS_P1;SDS_P2;PMS_P1;PMS_P2;Temp;Humidity;BMP_temperature;BMP_pressure;BME280_temperature;BME280_humidity;BME280_pressure;Samples;Min_cycle;Max_cycle;Signal;HPM_P1;HPM_P2
2023/04/19 00:02:01;;;;;;;11.68;9.88;;;;;;;9.59;84.69;102590.72;5029349;28;20075;-62
2023/04/19 00:04:26;;;;;;;8.25;6.78;;;;;;;9.87;83.18;102582.78;5027891;28;20038;-61
2023/04/19 00:06:51;;;;;;;9.77;8.77;;;;;;;9.65;84.76;102596.53;5028290;28;20041;-61
2023/04/19 00:09:17;;;;;;;11.35;10.25;;;;;;;9.72;84.40;102595.59;5030458;28;20349;-62
2023/04/19 00:11:42;;;;;;;9.02;8.13;;;;;;;10.09;82.57;102593.97;5044327;28;20436;-63
2023/04/19 00:14:07;;;;;;;11.13;10.13;;;;;;;9.77;84.48;102584.06;5028881;28;20041;-62
2023/04/19 00:16:32;;;;;;;10.90;9.90;;;;;;;9.99;83.38;102590.63;5029890;28;20037;-61
2023/04/19 00:18:58;;;;;;;11.07;9.98;;;;;;;9.66;85.64;102590.84;5028438;28;20037;-62
2023/04/19 00:21:23;;;;;;;10.27;9.27;;;;;;;9.94;84.22;102590.31;5038575;28;20237;-62
2023/04/19 00:23:48;;;;;;;10.90;9.80;;;;;;;9.73;85.20;102589.09;5026611;28;20091;-62
2023/04/19 00:26:14;;;;;;;10.95;9.70;;;;;;;9.82;84.75;102582.50;5025940;28;20479;-62
2023/04/19 00:28:40;;;;;;;11.30;10.20;;;;;;;9.69;85.89;102584.16;5029332;28;20033;-62
2023/04/19 00:31:05;;;;;;;11.25;10.15;;;;;;;9.82;85.24;102585.22;5029155;28;20035;-62
2023/04/19 00:33:31;;;;;;;12.07;10.88;;;;;;;9.68;86.03;102587.91;5028155;28;20060;-61
2023/04/19 00:35:57;;;;;;;11.35;10.25;;;;;;;9.76;85.57;102585.13;5027808;28;20052;-62
2023/04/19 00:38:22;;;;;;;11.18;10.07;;;;;;;9.92;84.55;102579.50;5026373;28;20048;-62
2023/04/19 00:40:47;;;;;;;11.10;10.00;;;;;;;9.75;86.15;102578.78;5028075;28;20065;-61
2023/04/19 00:43:17;;;;;;;11.50;10.40;;;;;;;9.94;85.36;102571.09;5025795;28;20022;-63
2023/04/19 00:45:43;;;;;;;11.20;10.10;;;;;;;10.08;84.65;102575.75;5029796;28;20026;-62
2023/04/19 00:48:08;;;;;;;11.00;9.98;;;;;;;9.83;86.62;102578.72;5027989;28;20040;-61
2023/04/19 00:50:34;;;;;;;11.20;10.10;;;;;;;9.87;86.07;102577.31;5027511;28;20493;-62
2023/04/19 00:53:01;;;;;;;11.93;10.70;;;;;;;9.90;86.17;102572.50;5026347;28;20030;-61
2023/04/19 00:55:26;;;;;;;11.55;10.45;;;;;;;9.79;87.34;102582.03;5013363;28;20064;-62
2023/04/19 00:57:52;;;;;;;12.50;11.20;;;;;;;9.74;87.75;102577.09;5026543;28;20022;-61
2023/04/19 01:00:18;;;;;;;10.55;9.45;;;;;;;9.84;86.72;102572.19;5026457;28;20040;-62
2023/04/19 01:02:44;;;;;;;11.60;10.40;;;;;;;9.88;86.99;102573.53;5010685;28;20061;-62
2023/04/19 01:05:09;;;;;;;11.82;10.63;;;;;;;9.76;88.59;102568.66;5026481;28;20065;-62
2023/04/19 01:07:35;;;;;;;11.98;10.77;;;;;;;9.75;88.27;102569.69;5026385;28;20034;-62
2023/04/19 01:10:00;;;;;;;9.85;8.25;;;;;;;9.78;88.18;102572.94;5028722;28;20025;-61
2023/04/19 01:12:26;;;;;;;11.23;10.05;;;;;;;9.69;88.94;102563.06;5025493;28;20033;-61
2023/04/19 01:14:51;;;;;;;11.88;10.68;;;;;;;9.72;88.59;102562.69;5009072;28;20416;-61
2023/04/19 01:17:17;;;;;;;11.93;10.73;;;;;;;9.69;89.30;102562.22;5029015;28;20036;-62
2023/04/19 01:19:43;;;;;;;7.90;6.72;;;;;;;9.86;88.26;102556.41;5027933;28;20025;-63
2023/04/19 01:22:08;;;;;;;11.70;10.02;;;;;;;9.69;89.01;102565.81;5027186;28;20033;-62
2023/04/19 01:24:33;;;;;;;12.15;10.95;;;;;;;9.80;88.79;102565.38;5025705;28;20417;-61
2023/04/19 01:26:59;;;;;;;12.18;10.98;;;;;;;9.82;88.66;102567.91;5025659;28;20033;-62
2023/04/19 01:29:24;;;;;;;11.73;10.52;;;;;;;9.66;90.37;102566.16;5027496;28;20581;-62
2023/04/19 01:31:52;;;;;;;12.00;10.68;;;;;;;9.74;89.43;102566.09;5008542;28;20103;-62
2023/04/19 01:34:18;;;;;;;12.35;10.45;;;;;;;9.72;90.26;102562.69;5013942;28;20099;-62
2023/04/19 01:36:43;;;;;;;12.30;11.10;;;;;;;9.68;90.62;102566.84;5027819;28;20029;-62
2023/04/19 01:39:09;;;;;;;11.98;10.80;;;;;;;9.73;90.86;102563.53;5027286;28;20039;-61
2023/04/19 01:41:35;;;;;;;12.52;11.32;;;;;;;9.82;90.61;102563.28;5026612;28;20053;-62
2023/04/19 01:44:00;;;;;;;11.68;10.57;;;;;;;9.79;90.52;102562.81;5021747;28;20147;-62
2023/04/19 01:46:25;;;;;;;12.75;11.40;;;;;;;9.80;91.28;102559.88;5007826;28;20038;-62
2023/04/19 01:48:51;;;;;;;12.30;11.00;;;;;;;9.83;91.18;102559.53;5005543;28;20018;-62
2023/04/19 01:51:16;;;;;;;11.80;10.60;;;;;;;9.82;91.80;102556.94;5016843;28;20604;-61
2023/04/19 01:53:41;;;;;;;11.98;10.75;;;;;;;9.86;91.94;102552.78;5007062;28;20669;-61
2023/04/19 01:56:07;;;;;;;11.70;10.57;;;;;;;9.81;92.51;102556.09;5027057;28;20039;-62
2023/04/19 01:58:32;;;;;;;12.43;11.23;;;;;;;9.83;92.27;102555.91;5011385;28;20037;-62
2023/04/19 02:00:57;;;;;;;12.30;11.00;;;;;;;10.03;90.70;102559.00;5006922;28;20088;-62
2023/04/19 02:03:22;;;;;;;12.70;11.40;;;;;;;9.94;92.01;102551.88;5005729;28;20037;-62
2023/04/19 02:05:48;;;;;;;12.90;11.60;;;;;;;9.91;92.01;102549.50;5008052;28;20025;-61
2023/04/19 02:08:13;;;;;;;12.95;11.65;;;;;;;9.92;92.50;102549.31;5004928;28;20037;-62
2023/04/19 02:10:38;;;;;;;12.18;10.88;;;;;;;9.90;92.24;102548.66;5007093;28;20101;-62
2023/04/19 02:13:04;;;;;;;12.25;11.10;;;;;;;10.00;91.69;102545.66;5006355;28;20076;-62
2023/04/19 02:15:29;;;;;;;13.05;11.63;;;;;;;9.92;92.71;102548.47;5022738;28;20037;-62
2023/04/19 02:17:54;;;;;;;11.85;10.75;;;;;;;9.93;92.54;102539.19;5019655;28;20048;-62
2023/04/19 02:20:20;;;;;;;13.50;10.85;;;;;;;10.13;91.09;102543.97;5027144;28;20033;-62
2023/04/19 02:22:46;;;;;;;12.15;10.95;;;;;;;10.16;90.61;102547.38;5015639;28;20481;-62
2023/04/19 02:25:12;;;;;;;11.73;10.63;;;;;;;9.92;92.74;102543.81;5005131;28;20548;-62
2023/04/19 02:27:37;;;;;;;13.05;11.88;;;;;;;9.93;92.52;102548.25;5009521;28;20109;-62
2023/04/19 02:30:03;;;;;;;9.02;7.93;;;;;;;10.31;89.94;102543.66;5012062;28;20076;-62
2023/04/19 02:32:28;;;;;;;11.45;9.88;;;;;;;9.94;92.39;102555.50;5012098;28;20064;-62
2023/04/19 02:34:54;;;;;;;11.65;9.50;;;;;;;9.92;92.64;102542.97;5006876;28;20120;-62
2023/04/19 02:37:19;;;;;;;12.07;9.13;;;;;;;10.33;89.31;102543.47;5004157;28;20068;-61
2023/04/19 02:39:45;;;;;;;11.75;10.52;;;;;;;10.15;90.35;102546.53;5012524;28;20035;-61
2023/04/19 02:42:10;;;;;;;8.95;7.32;;;;;;;10.38;88.29;102541.84;5010011;28;20065;-61
2023/04/19 02:44:35;;;;;;;8.52;7.07;;;;;;;10.25;89.86;102540.81;5005786;28;20100;-62
2023/04/19 02:47:01;;;;;;;11.55;10.38;;;;;;;10.00;90.79;102542.91;5093216;23;20128;-62
2023/04/19 02:49:26;;;;;;;11.05;9.95;;;;;;;10.13;89.48;102545.84;5052777;28;20533;-62
2023/04/19 02:51:51;;;;;;;9.07;6.68;;;;;;;10.03;90.50;102543.38;5048467;28;20055;-61
2023/04/19 02:54:17;;;;;;;9.90;7.70;;;;;;;10.07;89.69;102544.72;5065582;28;20033;-62
2023/04/19 02:56:42;;;;;;;10.23;8.07;;;;;;;10.08;90.01;102548.31;5065495;28;20033;-63
2023/04/19 02:59:07;;;;;;;10.88;9.82;;;;;;;9.92;90.52;102553.94;5048798;28;20029;-62
2023/04/19 03:01:32;;;;;;;11.00;9.90;;;;;;;9.81;91.21;102549.75;5043410;28;20078;-62
2023/04/19 03:03:58;;;;;;;8.27;6.60;;;;;;;9.96;91.32;102549.81;5045612;28;20406;-62
2023/04/19 03:06:23;;;;;;;10.73;9.63;;;;;;;9.76;92.07;102550.31;5045609;28;20036;-62
2023/04/19 03:08:49;;;;;;;10.23;8.65;;;;;;;9.88;91.07;102547.97;5045336;28;20045;-62
2023/04/19 03:11:15;;;;;;;11.38;10.27;;;;;;;9.71;92.51;102549.16;5044951;28;20029;-61
2023/04/19 03:13:40;;;;;;;10.40;9.40;;;;;;;10.01;90.21;102550.09;5046267;28;20021;-62
2023/04/19 03:16:06;;;;;;;10.98;9.90;;;;;;;9.67;93.17;102547.81;5045691;28;20083;-62
2023/04/19 03:18:31;;;;;;;7.90;6.78;;;;;;;9.98;90.75;102543.06;5045433;28;20032;-62
2023/04/19 03:20:57;;;;;;;10.27;9.20;;;;;;;9.74;92.50;102543.31;5046199;28;20033;-62
2023/04/19 03:23:22;;;;;;;9.55;8.55;;;;;;;9.75;92.31;102542.25;5045278;28;20025;-61
2023/04/19 03:25:47;;;;;;;10.48;9.48;;;;;;;10.00;90.62;102542.91;5045223;28;20029;-62
2023/04/19 03:28:13;;;;;;;9.40;7.57;;;;;;;9.86;91.68;102539.06;5045626;28;20132;-62
2023/04/19 03:30:38;;;;;;;8.30;7.07;;;;;;;9.76;92.02;102542.06;5046097;28;20032;-62
2023/04/19 03:33:04;;;;;;;11.10;8.02;;;;;;;9.95;91.25;102534.38;5045369;28;20559;-62
2023/04/19 03:35:31;;;;;;;10.98;7.55;;;;;;;10.07;90.91;102539.22;5045410;28;20128;-62
2023/04/19 03:37:56;;;;;;;9.23;8.32;;;;;;;10.09;90.07;102541.81;5045422;28;20024;-62
2023/04/19 03:40:21;;;;;;;8.65;7.72;;;;;;;10.24;90.01;102530.84;5044414;28;20536;-62
2023/04/19 03:42:46;;;;;;;9.18;8.20;;;;;;;10.04;89.97;102538.75;5045582;28;20055;-61
2023/04/19 03:45:12;;;;;;;10.50;9.50;;;;;;;9.78;92.02;102533.66;5045969;28;20039;-62
2023/04/19 03:47:37;;;;;;;9.35;8.13;;;;;;;10.26;89.06;102528.78;5045105;28;20067;-62
2023/04/19 03:50:03;;;;;;;10.27;7.82;;;;;;;9.84;91.69;102533.78;5045631;28;20610;-62
2023/04/19 03:52:28;;;;;;;10.55;8.40;;;;;;;9.91;91.03;102538.53;5044830;28;20085;-61
2023/04/19 03:54:53;;;;;;;10.57;9.48;;;;;;;9.73;91.64;102542.47;5045174;28;20033;-63
2023/04/19 03:57:18;;;;;;;10.93;9.82;;;;;;;9.72;91.85;102548.97;5048122;28;20082;-62
2023/04/19 03:59:44;;;;;;;9.90;8.77;;;;;;;10.01;89.32;102536.38;5049112;28;20059;-62
2023/04/19 04:02:09;;;;;;;8.00;6.75;;;;;;;9.99;89.68;102535.72;5049440;28;20443;-62
2023/04/19 04:04:34;;;;;;;8.43;6.55;;;;;;;10.02;89.45;102532.59;5048496;28;20040;-62
2023/04/19 04:07:00;;;;;;;10.30;9.05;;;;;;;9.62;91.73;102531.88;5049149;28;20040;-62
2023/04/19 04:09:25;;;;;;;12.10;9.45;;;;;;;9.55;92.74;102536.41;5048290;28;20021;-62
2023/04/19 04:11:50;;;;;;;9.38;7.53;;;;;;;9.72;91.07;102540.72;5047829;28;20110;-62
2023/04/19 04:14:16;;;;;;;7.68;6.38;;;;;;;9.99;89.56;102543.97;5048300;28;20021;-62
2023/04/19 04:16:41;;;;;;;9.68;8.40;;;;;;;9.57;91.71;102526.94;5048992;28;20139;-61
2023/04/19 04:19:06;;;;;;;10.05;8.25;;;;;;;9.61;91.36;102530.19;5048706;28;20021;-62
2023/04/19 04:21:32;;;;;;;9.85;7.97;;;;;;;9.72;89.52;102529.75;5047747;28;20103;-61
2023/04/19 04:24:00;;;;;;;9.38;7.85;;;;;;;9.32;92.65;102539.97;5046806;28;20031;-62
2023/04/19 04:26:29;;;;;;;9.60;8.40;;;;;;;9.37;91.69;102533.94;5047377;28;20025;-62
2023/04/19 04:28:55;;;;;;;8.43;6.65;;;;;;;9.31;92.18;102543.75;5048264;28;20113;-62
2023/04/19 04:31:20;;;;;;;5.97;5.38;;;;;;;9.58;90.06;102531.41;5047955;28;20650;-62
2023/04/19 04:33:45;;;;;;;7.88;6.50;;;;;;;9.81;87.64;102539.63;5048272;28;20029;-61
2023/04/19 04:36:10;;;;;;;8.20;7.25;;;;;;;9.09;91.37;102550.06;5048335;28;20475;-62
2023/04/19 04:38:36;;;;;;;7.93;6.50;;;;;;;9.39;88.16;102544.75;5062911;28;20063;-62
2023/04/19 04:41:01;;;;;;;6.72;5.43;;;;;;;9.51;87.09;102549.63;5047789;28;20812;-62
2023/04/19 04:43:28;;;;;;;8.63;6.85;;;;;;;9.04;89.55;102555.22;5047540;28;20741;-62
2023/04/19 04:45:54;;;;;;;8.27;5.47;;;;;;;9.42;87.40;102549.88;5048126;28;20029;-61
2023/04/19 04:48:20;;;;;;;7.28;6.43;;;;;;;9.15;88.11;102560.31;5047881;28;20021;-62
2023/04/19 04:50:45;;;;;;;9.02;6.90;;;;;;;8.74;90.93;102565.13;5047923;28;20713;-62
2023/04/19 04:53:13;;;;;;;9.05;6.68;;;;;;;8.61;92.47;102562.06;5046401;28;20033;-61
2023/04/19 04:55:38;;;;;;;9.55;7.57;;;;;;;8.60;92.15;102563.09;5047306;28;20520;-62
2023/04/19 04:58:06;;;;;;;8.13;7.07;;;;;;;8.71;91.14;102565.47;5047656;28;20025;-62
2023/04/19 05:00:32;;;;;;;8.45;7.30;;;;;;;8.73;91.30;102564.25;5047428;28;20315;-62
2023/04/19 05:02:58;;;;;;;8.32;7.30;;;;;;;8.62;91.75;102559.16;5047175;28;20376;-61
2023/04/19 05:05:24;;;;;;;8.10;6.93;;;;;;;8.62;91.78;102552.81;5047290;28;20051;-61
2023/04/19 05:07:49;;;;;;;6.50;5.05;;;;;;;8.60;92.10;102555.75;5045654;28;20048;-62
2023/04/19 05:10:14;;;;;;;8.48;5.80;;;;;;;8.68;91.49;102555.72;5044418;28;20511;-61
2023/04/19 05:12:40;;;;;;;7.72;6.78;;;;;;;8.68;91.31;102552.97;5027801;28;20029;-62
2023/04/19 05:15:06;;;;;;;6.03;4.80;;;;;;;8.85;90.01;102556.50;5027485;28;20026;-62
2023/04/19 05:17:31;;;;;;;7.72;6.90;;;;;;;8.68;90.93;102561.19;5034144;28;20463;-62
2023/04/19 05:19:56;;;;;;;7.82;6.22;;;;;;;8.79;90.03;102573.66;5047297;28;20025;-62
2023/04/19 05:22:22;;;;;;;8.68;6.93;;;;;;;8.72;90.23;102565.31;5045821;28;20029;-62
2023/04/19 05:24:49;;;;;;;8.50;7.13;;;;;;;8.33;93.49;102570.66;5046607;28;20033;-62
2023/04/19 05:27:14;;;;;;;7.82;5.80;;;;;;;8.41;92.23;102570.66;5046832;28;20057;-61
2023/04/19 05:29:40;;;;;;;8.10;7.30;;;;;;;8.40;92.94;102568.97;5047601;28;20068;-61
2023/04/19 05:32:06;;;;;;;7.03;6.13;;;;;;;8.69;89.51;102571.13;5047206;28;20689;-61
2023/04/19 05:34:32;;;;;;;7.95;6.90;;;;;;;8.52;90.94;102574.94;5046997;28;20052;-61
2023/04/19 05:36:58;;;;;;;9.07;7.20;;;;;;;8.40;91.99;102570.84;5047173;28;20618;-62
2023/04/19 05:39:23;;;;;;;7.32;5.95;;;;;;;8.31;92.40;102568.13;5046166;28;20113;-62
2023/04/19 05:41:48;;;;;;;8.20;7.35;;;;;;;8.28;93.65;102576.66;5046571;28;20033;-61
2023/04/19 05:44:14;;;;;;;6.90;6.18;;;;;;;8.43;91.98;102571.38;5046680;28;20390;-62
2023/04/19 05:46:39;;;;;;;7.28;6.47;;;;;;;8.66;90.45;102565.97;5046821;28;20044;-61
2023/04/19 05:49:04;;;;;;;8.02;6.22;;;;;;;8.63;90.75;102569.09;5047039;28;20050;-61
2023/04/19 05:51:30;;;;;;;8.32;6.63;;;;;;;8.59;91.34;102565.00;5043015;28;20025;-62
2023/04/19 05:53:56;;;;;;;7.15;5.35;;;;;;;8.91;88.00;102563.16;5049536;28;20025;-62
2023/04/19 05:56:21;;;;;;;6.20;5.13;;;;;;;9.02;86.13;102563.63;5064526;28;20067;-61
2023/04/19 05:58:46;;;;;;;7.88;6.65;;;;;;;8.92;86.30;102567.59;5066340;28;20033;-62
2023/04/19 06:01:12;;;;;;;7.85;6.22;;;;;;;9.07;85.56;102565.81;5065446;28;20382;-62
2023/04/19 06:03:37;;;;;;;7.40;5.43;;;;;;;9.10;84.25;102562.72;5064985;28;20117;-61
2023/04/19 06:06:03;;;;;;;7.20;5.78;;;;;;;9.20;82.29;102568.84;5065931;28;20508;-62
2023/04/19 06:08:28;;;;;;;6.60;5.45;;;;;;;9.14;83.83;102560.50;5064119;28;20029;-62
2023/04/19 06:10:54;;;;;;;7.18;6.25;;;;;;;9.26;83.18;102568.13;5043391;28;20021;-62
2023/04/19 06:13:20;;;;;;;7.10;5.28;;;;;;;9.41;80.74;102568.22;5045548;28;20033;-62
2023/04/19 06:15:46;;;;;;;7.78;5.82;;;;;;;9.34;80.80;102570.81;5045866;28;20048;-62
2023/04/19 06:18:11;;;;;;;7.97;5.97;;;;;;;9.38;79.49;102564.97;5045771;28;20029;-62
2023/04/19 06:20:37;;;;;;;6.93;5.80;;;;;;;9.77;77.67;102568.47;5045376;28;20329;-62
2023/04/19 06:23:03;;;;;;;5.22;4.40;;;;;;;9.67;77.44;102564.25;5045344;28;20062;-62
2023/04/19 06:25:28;;;;;;;7.85;5.63;;;;;;;9.83;75.51;102567.75;5044601;28;20027;-62
2023/04/19 06:27:53;;;;;;;7.00;6.30;;;;;;;9.95;74.79;102556.34;5045406;28;20439;-62
2023/04/19 06:30:19;;;;;;;7.28;6.07;;;;;;;9.42;76.16;102566.31;5045565;28;20086;-62
2023/04/19 06:32:44;;;;;;;7.47;5.68;;;;;;;9.40;76.56;102560.16;5045306;28;20427;-62
2023/04/19 06:35:09;;;;;;;6.68;5.63;;;;;;;9.33;77.27;102566.38;5045700;28;20758;-62
2023/04/19 06:37:35;;;;;;;6.82;4.18;;;;;;;9.54;74.38;102560.25;5045275;28;20048;-62
2023/04/19 06:40:00;;;;;;;7.38;5.30;;;;;;;9.49;77.17;102567.31;5045757;28;20418;-62
2023/04/19 06:42:26;;;;;;;6.88;5.43;;;;;;;9.69;74.75;102562.22;5045171;28;20107;-62
2023/04/19 06:44:52;;;;;;;7.15;5.53;;;;;;;9.99;72.13;102564.03;5045779;28;20021;-62
2023/04/19 06:47:17;;;;;;;8.32;5.25;;;;;;;10.27;69.65;102560.69;5044887;28;20045;-62
2023/04/19 06:49:43;;;;;;;6.28;5.13;;;;;;;10.41;68.83;102562.63;5041840;28;20029;-62
2023/04/19 06:52:08;;;;;;;5.82;4.63;;;;;;;10.60;68.30;102555.72;5043439;28;20112;-62
2023/04/19 06:54:33;;;;;;;6.60;4.85;;;;;;;10.62;68.92;102553.63;5041391;28;20446;-61
2023/04/19 06:56:58;;;;;;;8.35;5.47;;;;;;;10.82;67.53;102560.25;5042012;28;20029;-62
2023/04/19 06:59:27;;;;;;;5.18;4.18;;;;;;;11.16;64.87;102562.41;5041066;28;20025;-62
2023/04/19 07:01:52;;;;;;;6.50;4.45;;;;;;;11.11;65.09;102550.28;5041556;28;20104;-61
2023/04/19 07:04:18;;;;;;;6.72;4.78;;;;;;;11.34;63.59;102564.72;5040872;28;20103;-61
2023/04/19 07:06:47;;;;;;;6.10;4.90;;;;;;;11.86;62.23;102562.75;5041551;28;20451;-62
2023/04/19 07:09:12;;;;;;;5.95;4.85;;;;;;;12.19;60.70;102563.06;5041141;28;20374;-63
2023/04/19 07:11:38;;;;;;;6.43;4.70;;;;;;;12.40;58.41;102559.38;5044720;28;20029;-62
2023/04/19 07:14:03;;;;;;;6.53;4.35;;;;;;;12.54;59.36;102558.44;5064522;28;20028;-63
2023/04/19 07:16:28;;;;;;;4.82;3.83;;;;;;;12.85;57.86;102559.88;5065166;28;20442;-62
2023/04/19 07:18:53;;;;;;;5.88;4.32;;;;;;;12.48;56.25;102555.66;5046568;28;20021;-62
2023/04/19 07:21:19;;;;;;;6.38;4.30;;;;;;;12.86;57.66;102562.44;5044474;28;20025;-62
2023/04/19 07:23:44;;;;;;;5.97;4.32;;;;;;;13.61;56.23;102551.50;5043389;28;20416;-62
2023/04/19 07:26:10;;;;;;;5.63;3.90;;;;;;;13.89;53.91;102554.06;5041095;28;20455;-62
2023/04/19 07:28:35;;;;;;;5.55;3.55;;;;;;;13.56;55.06;102548.50;5042791;28;20025;-62
2023/04/19 07:31:00;;;;;;;8.20;4.95;;;;;;;13.24;54.02;102557.34;5045053;28;20029;-63
2023/04/19 07:33:26;;;;;;;6.55;4.57;;;;;;;13.74;54.14;102559.81;5045844;28;20059;-62
2023/04/19 07:35:52;;;;;;;5.35;4.78;;;;;;;14.34;50.82;102560.66;5046313;28;20317;-62
2023/04/19 07:38:18;;;;;;;7.15;4.30;;;;;;;13.90;50.28;102556.66;5045894;28;20490;-62
2023/04/19 07:40:43;;;;;;;4.82;3.75;;;;;;;14.09;50.21;102565.13;5046198;28;20040;-62
2023/04/19 07:43:08;;;;;;;5.70;4.38;;;;;;;13.63;51.39;102566.78;5047028;28;20402;-62
2023/04/19 07:45:34;;;;;;;5.85;4.32;;;;;;;13.29;51.10;102564.16;5045613;28;20024;-62
2023/04/19 07:47:59;;;;;;;5.35;3.50;;;;;;;13.10;52.83;102563.81;5046170;28;20041;-62
2023/04/19 07:50:27;;;;;;;7.00;4.30;;;;;;;13.19;51.80;102564.50;5046392;28;20025;-62
2023/04/19 07:52:52;;;;;;;5.47;4.07;;;;;;;13.43;51.10;102561.22;5046353;28;20032;-63
2023/04/19 07:55:18;;;;;;;6.60;4.50;;;;;;;13.18;50.78;102555.38;5044913;28;20021;-62
2023/04/19 07:57:47;;;;;;;5.75;4.18;;;;;;;13.41;50.09;102545.94;5046317;28;20025;-63
2023/04/19 08:00:14;;;;;;;6.30;4.00;;;;;;;13.07;52.38;102564.22;5047188;28;20033;-63
2023/04/19 08:02:42;;;;;;;6.47;4.35;;;;;;;12.82;52.30;102555.63;5047029;28;20029;-61
2023/04/19 08:05:07;;;;;;;7.30;4.40;;;;;;;12.78;53.14;102554.34;5046616;28;20025;-62
2023/04/19 08:07:33;;;;;;;4.78;3.60;;;;;;;12.96;51.38;102548.28;5045922;28;20820;-62
2023/04/19 08:09:58;;;;;;;6.60;4.53;;;;;;;12.62;53.52;102562.91;5045102;28;20028;-62
2023/04/19 08:12:23;;;;;;;6.20;4.25;;;;;;;12.56;52.22;102547.19;5045705;28;20024;-62
2023/04/19 08:14:49;;;;;;;6.60;3.70;;;;;;;12.81;51.23;102556.69;5046242;28;20068;-62
2023/04/19 08:17:16;;;;;;;6.55;4.40;;;;;;;12.27;54.18;102553.81;5044695;28;20032;-62
2023/04/19 08:19:41;;;;;;;7.05;4.57;;;;;;;12.52;53.62;102546.78;5046317;28;20078;-62
2023/04/19 08:22:07;;;;;;;5.40;3.55;;;;;;;12.59;52.10;102557.81;5045956;28;20120;-62
2023/04/19 08:24:32;;;;;;;4.53;3.50;;;;;;;12.46;51.76;102551.16;5044227;28;20033;-62
2023/04/19 08:26:57;;;;;;;6.03;4.13;;;;;;;12.51;51.87;102546.94;5045705;28;20040;-62
2023/04/19 08:29:22;;;;;;;5.85;4.20;;;;;;;12.32;52.46;102546.63;5045285;28;20028;-62
2023/04/19 08:31:48;;;;;;;5.28;3.65;;;;;;;12.56;51.83;102552.72;5045705;28;20039;-62
2023/04/19 08:34:13;;;;;;;4.88;3.70;;;;;;;13.12;49.88;102541.53;5045201;28;20029;-63
2023/04/19 08:36:38;;;;;;;5.05;3.88;;;;;;;12.56;50.18;102552.72;5045591;28;20147;-62
2023/04/19 08:39:04;;;;;;;6.47;4.05;;;;;;;12.79;49.22;102553.28;5045685;28;20104;-62
2023/04/19 08:41:29;;;;;;;4.97;3.63;;;;;;;12.82;49.16;102541.81;5044126;28;20033;-62
2023/04/19 08:43:56;;;;;;;4.57;3.28;;;;;;;12.72;49.21;102539.47;5045236;28;20033;-62
2023/04/19 08:46:23;;;;;;;4.40;3.20;;;;;;;12.77;49.43;102546.25;5044936;28;20126;-62
2023/04/19 08:48:49;;;;;;;5.18;3.28;;;;;;;13.06;48.64;102545.13;5045035;28;20025;-62
2023/04/19 08:51:16;;;;;;;5.05;3.47;;;;;;;13.38;47.74;102538.06;5045327;28;20031;-62
2023/04/19 08:53:43;;;;;;;3.80;2.90;;;;;;;13.75;46.38;102539.41;5045116;28;20108;-62
2023/04/19 08:56:09;;;;;;;5.35;3.30;;;;;;;14.02;45.33;102540.28;5044205;28;20032;-62
2023/04/19 08:58:34;;;;;;;4.65;2.28;;;;;;;14.43;44.88;102540.03;5044676;28;20103;-62
2023/04/19 09:01:02;;;;;;;4.15;3.03;;;;;;;14.76;44.18;102534.47;5045158;28;20531;-62
2023/04/19 09:03:27;;;;;;;4.30;2.85;;;;;;;14.89;43.17;102529.94;5044371;28;20033;-62
2023/04/19 09:05:53;;;;;;;4.45;2.60;;;;;;;14.85;42.35;102534.22;5044881;28;20017;-62
2023/04/19 09:08:27;;;;;;;4.32;2.88;;;;;;;15.07;43.44;102545.84;5043886;28;20133;-62
2023/04/19 09:11:00;;;;;;;4.43;2.88;;;;;;;15.88;40.65;102540.50;5044258;28;20032;-62
2023/04/19 09:13:28;;;;;;;3.97;2.88;;;;;;;15.84;38.41;102536.47;5044339;28;20036;-62
2023/04/19 09:15:55;;;;;;;3.50;2.70;;;;;;;16.83;38.23;102529.16;5044441;28;20025;-62
2023/04/19 09:18:21;;;;;;;2.90;2.10;;;;;;;17.49;36.45;102519.97;5043720;28;20436;-63
2023/04/19 09:20:47;;;;;;;3.65;2.60;;;;;;;16.89;39.23;102522.69;5043821;28;20120;-63
2023/04/19 09:23:16;;;;;;;3.97;2.80;;;;;;;16.88;36.52;102532.09;5044142;28;20081;-64
2023/04/19 09:25:51;;;;;;;4.53;3.08;;;;;;;16.61;37.07;102542.59;5043509;28;20025;-62
2023/04/19 09:28:16;;;;;;;4.82;2.63;;;;;;;16.18;37.40;102531.53;5044139;28;20092;-63
2023/04/19 09:30:42;;;;;;;4.50;2.72;;;;;;;16.37;37.45;102543.47;5045171;28;20025;-62
2023/04/19 09:33:07;;;;;;;3.45;2.45;;;;;;;16.85;37.51;102536.16;5044806;28;20108;-63
2023/04/19 09:35:40;;;;;;;3.83;2.60;;;;;;;17.61;38.10;102543.06;5044808;28;20040;-62
2023/04/19 09:38:05;;;;;;;3.30;2.35;;;;;;;17.27;35.94;102535.44;5043858;28;20032;-62
2023/04/19 09:40:31;;;;;;;4.00;2.65;;;;;;;17.56;36.23;102531.81;5043423;28;20024;-65
2023/04/19 09:42:56;;;;;;;4.75;3.15;;;;;;;17.30;35.15;102535.81;5044296;28;20392;-63
2023/04/19 09:45:21;;;;;;;4.93;2.53;;;;;;;18.07;35.98;102527.59;5042644;28;20033;-63
2023/04/19 09:48:00;;;;;;;4.00;2.80;;;;;;;18.39;34.59;102528.09;5043697;28;20056;-63
2023/04/19 09:50:26;;;;;;;3.75;2.72;;;;;;;17.97;33.70;102523.72;5043801;28;20059;-62
2023/04/19 09:52:51;;;;;;;8.45;3.25;;;;;;;17.72;33.58;102516.38;5043955;28;20100;-62
2023/04/19 09:55:18;;;;;;;4.70;2.42;;;;;;;17.73;33.14;102520.03;5042816;28;20463;-62
2023/04/19 09:57:44;;;;;;;3.50;2.60;;;;;;;18.17;32.60;102517.81;5044278;28;20021;-62
2023/04/19 10:00:12;;;;;;;3.65;2.30;;;;;;;18.65;32.35;102524.00;5044435;28;20463;-62
2023/04/19 10:02:39;;;;;;;;;;;;;;;19.09;32.91;102520.75;5044842;28;20029;-63
2023/04/19 10:05:06;;;;;;;4.28;2.85;;;;;;;18.35;32.11;102520.50;5044358;28;20345;-63
2023/04/19 10:07:32;;;;;;;3.95;2.45;;;;;;;18.56;33.36;102517.09;5043352;28;20112;-62
2023/04/19 10:09:58;;;;;;;2.67;1.90;;;;;;;18.43;32.23;102514.56;5042299;28;20179;-62
2023/04/19 10:12:25;;;;;;;4.13;2.20;;;;;;;18.23;33.11;102517.69;5043807;28;20032;-62
2023/04/19 10:14:54;;;;;;;4.60;2.72;;;;;;;17.61;32.39;102504.16;5043741;28;20170;-62
2023/04/19 10:17:20;;;;;;;3.17;2.08;;;;;;;16.98;34.29;102517.66;5043461;28;20363;-62
2023/04/19 10:19:46;;;;;;;2.22;1.70;;;;;;;17.45;33.00;102513.19;5043260;28;20455;-62
2023/04/19 10:22:13;;;;;;;2.85;1.83;;;;;;;17.10;31.80;102507.47;5043743;28;20025;-63
2023/04/19 10:24:38;;;;;;;2.88;1.90;;;;;;;17.29;33.06;102513.84;5041712;28;20025;-63
2023/04/19 10:27:11;;;;;;;3.33;1.60;;;;;;;17.11;32.39;102492.50;5043893;28;20187;-62
2023/04/19 10:29:56;;;;;;;2.83;1.42;;;;;;;17.05;31.98;102508.16;5043651;28;20032;-63
2023/04/19 10:32:23;;;;;;;3.13;1.50;;;;;;;17.75;30.55;102510.41;5045432;28;20465;-62
2023/04/19 10:34:53;;;;;;;4.63;1.60;;;;;;;18.75;28.85;102503.88;5045752;28;20535;-63
2023/04/19 10:37:21;;;;;;;2.35;1.55;;;;;;;19.64;27.57;102507.09;5044951;28;20037;-63
2023/04/19 10:39:47;;;;;;;3.78;1.60;;;;;;;20.28;26.95;102489.19;5044921;28;20029;-63
2023/04/19 10:42:12;;;;;;;2.70;1.60;;;;;;;21.06;27.91;102504.78;5045287;28;20035;-64
2023/04/19 10:44:37;;;;;;;2.13;1.40;;;;;;;21.72;25.97;102490.72;5045547;28;20060;-63
2023/04/19 10:47:04;;;;;;;2.65;1.48;;;;;;;21.37;25.78;102502.38;5045114;28;20056;-62
2023/04/19 10:49:30;;;;;;;4.10;1.50;;;;;;;20.30;26.17;102495.34;5044586;28;20709;-62
2023/04/19 10:51:56;;;;;;;1.27;1.17;;;;;;;19.56;27.04;102501.88;5043861;28;20060;-62
2023/04/19 10:54:37;;;;;;;4.05;1.65;;;;;;;18.74;29.57;102499.41;5043279;28;20037;-62
2023/04/19 10:57:07;;;;;;;2.88;1.80;;;;;;;18.20;29.82;102500.63;5044758;28;20025;-62
2023/04/19 10:59:36;;;;;;;2.72;1.70;;;;;;;17.82;29.83;102504.72;5043921;28;20021;-62
2023/04/19 11:02:04;;;;;;;1.98;1.60;;;;;;;17.50;29.56;102482.75;5043797;28;20027;-62
2023/04/19 11:04:29;;;;;;;1.83;1.40;;;;;;;17.45;31.98;102510.41;5057363;28;20422;-62
2023/04/19 11:06:55;;;;;;;1.83;1.50;;;;;;;17.33;32.05;102485.34;5068733;28;20056;-62
2023/04/19 11:09:38;;;;;;;1.90;1.50;;;;;;;17.39;31.47;102497.47;5067874;28;20282;-62
2023/04/19 11:12:09;;;;;;;2.88;1.80;;;;;;;17.94;32.12;102499.19;5068579;28;20044;-62
2023/04/19 11:14:38;;;;;;;2.67;1.90;;;;;;;17.34;32.63;102498.16;5068822;28;20035;-62
2023/04/19 11:17:15;;;;;;;4.95;1.73;;;;;;;16.61;33.47;102493.50;5065649;28;20052;-62
2023/04/19 11:19:52;;;;;;;4.03;2.10;;;;;;;15.73;35.14;102499.28;5049516;28;20108;-62
2023/04/19 11:22:17;;;;;;;3.63;2.05;;;;;;;15.35;35.50;102496.50;5047516;28;20430;-62